sensor_id;sensor_type;location;lat;lon;timestamp;pressure;altitude;pressure_sealevel;temperature;humidity
29063;BME280;71206;48.564;-123.458;2023-08-24T00:01:05;101286.39;;;22.86;50.33
29063;BME280;71206;48.564;-123.458;2023-08-24T00:03:31;101289.96;;;22.67;51.15
29063;BME280;71206;48.564;-123.458;2023-08-24T00:05:56;101289.51;;;21.11;56.97
29063;BME280;71206;48.564;-123.458;2023-08-24T00:08:23;101293.58;;;19.27;67.59
29063;BME280;71206;48.564;-123.458;2023-08-24T00:10:48;101287.98;;;21.33;56.97
29063;BME280;71206;48.564;-123.458;2023-08-24T00:13:14;101284.80;;;21.88;55.86
29063;BME280;71206;48.564;-123.458;2023-08-24T00:15:39;101286.49;;;21.57;55.94
29063;BME280;71206;48.564;-123.458;2023-08-24T00:18:05;101282.09;;;22.44;50.91
29063;BME280;71206;48.564;-123.458;2023-08-24T00:20:31;101288.00;;;22.63;50.25
29063;BME280;71206;48.564;-123.458;2023-08-24T00:22:56;101296.00;;;19.19;60.20
29063;BME280;71206;48.564;-123.458;2023-08-24T00:25:22;101300.26;;;19.23;64.01
29063;BME280;71206;48.564;-123.458;2023-08-24T00:27:47;101288.61;;;21.01;57.39
29063;BME280;71206;48.564;-123.458;2023-08-24T00:30:13;101290.59;;;21.16;54.57
29063;BME280;71206;48.564;-123.458;2023-08-24T00:32:38;101290.73;;;22.69;48.71
29063;BME280;71206;48.564;-123.458;2023-08-24T00:35:08;101293.12;;;23.42;47.03
29063;BME280;71206;48.564;-123.458;2023-08-24T00:37:29;101293.48;;;23.10;46.30
29063;BME280;71206;48.564;-123.458;2023-08-24T00:39:56;101293.79;;;23.53;45.03
29063;BME280;71206;48.564;-123.458;2023-08-24T00:42:21;101292.75;;;22.73;47.22
29063;BME280;71206;48.564;-123.458;2023-08-24T00:44:47;101294.99;;;23.64;45.15
29063;BME280;71206;48.564;-123.458;2023-08-24T00:47:12;101295.67;;;21.65;48.28
29063;BME280;71206;48.564;-123.458;2023-08-24T00:49:38;101295.27;;;22.01;49.41
29063;BME280;71206;48.564;-123.458;2023-08-24T00:52:04;101296.95;;;21.45;49.34
29063;BME280;71206;48.564;-123.458;2023-08-24T00:54:29;101296.40;;;21.65;48.11
29063;BME280;71206;48.564;-123.458;2023-08-24T00:56:55;101298.45;;;21.61;49.49
29063;BME280;71206;48.564;-123.458;2023-08-24T00:59:20;101300.78;;;21.46;52.36
29063;BME280;71206;48.564;-123.458;2023-08-24T01:01:47;101302.52;;;20.48;55.73
29063;BME280;71206;48.564;-123.458;2023-08-24T01:04:12;101302.62;;;20.89;58.48
29063;BME280;71206;48.564;-123.458;2023-08-24T01:06:37;101305.17;;;19.68;65.71
29063;BME280;71206;48.564;-123.458;2023-08-24T01:09:03;101300.61;;;20.99;60.60
29063;BME280;71206;48.564;-123.458;2023-08-24T01:11:37;101309.16;;;19.06;69.38
29063;BME280;71206;48.564;-123.458;2023-08-24T01:13:59;101308.95;;;19.22;67.51
29063;BME280;71206;48.564;-123.458;2023-08-24T01:16:23;101300.43;;;20.25;61.02
29063;BME280;71206;48.564;-123.458;2023-08-24T01:18:45;101300.58;;;20.26;62.70
29063;BME280;71206;48.564;-123.458;2023-08-24T01:21:11;101300.04;;;20.81;60.97
29063;BME280;71206;48.564;-123.458;2023-08-24T01:23:43;101303.92;;;20.39;59.26
29063;BME280;71206;48.564;-123.458;2023-08-24T01:26:07;101299.87;;;22.38;52.90
29063;BME280;71206;48.564;-123.458;2023-08-24T01:28:27;101302.98;;;20.21;62.41
29063;BME280;71206;48.564;-123.458;2023-08-24T01:30:53;101303.54;;;20.82;60.40
29063;BME280;71206;48.564;-123.458;2023-08-24T01:33:18;101308.75;;;19.23;65.02
29063;BME280;71206;48.564;-123.458;2023-08-24T01:35:44;101300.09;;;21.44;55.14
29063;BME280;71206;48.564;-123.458;2023-08-24T01:38:09;101300.02;;;22.22;50.85
29063;BME280;71206;48.564;-123.458;2023-08-24T01:40:47;101300.11;;;22.45;48.66
29063;BME280;71206;48.564;-123.458;2023-08-24T01:43:03;101300.96;;;22.30;48.20
29063;BME280;71206;48.564;-123.458;2023-08-24T01:45:30;101297.25;;;22.64;46.71
29063;BME280;71206;48.564;-123.458;2023-08-24T01:47:52;101301.02;;;23.33;47.01
29063;BME280;71206;48.564;-123.458;2023-08-24T01:50:16;101296.96;;;22.85;46.88
29063;BME280;71206;48.564;-123.458;2023-08-24T01:52:45;101298.07;;;22.87;47.30
29063;BME280;71206;48.564;-123.458;2023-08-24T01:55:08;101299.62;;;21.63;50.45
29063;BME280;71206;48.564;-123.458;2023-08-24T01:57:33;101298.71;;;21.65;50.73
29063;BME280;71206;48.564;-123.458;2023-08-24T01:59:58;101302.81;;;21.23;51.81
29063;BME280;71206;48.564;-123.458;2023-08-24T02:02:24;101303.70;;;19.93;59.61
29063;BME280;71206;48.564;-123.458;2023-08-24T02:04:50;101305.17;;;19.79;59.21
29063;BME280;71206;48.564;-123.458;2023-08-24T02:07:15;101303.77;;;20.51;57.04
29063;BME280;71206;48.564;-123.458;2023-08-24T02:09:41;101306.37;;;20.79;58.75
29063;BME280;71206;48.564;-123.458;2023-08-24T02:12:07;101305.20;;;21.12;55.68
29063;BME280;71206;48.564;-123.458;2023-08-24T02:14:32;101309.78;;;19.53;66.81
29063;BME280;71206;48.564;-123.458;2023-08-24T02:16:57;101305.54;;;21.65;58.89
29063;BME280;71206;48.564;-123.458;2023-08-24T02:19:24;101306.18;;;22.25;54.92
29063;BME280;71206;48.564;-123.458;2023-08-24T02:21:49;101306.94;;;20.62;63.20
29063;BME280;71206;48.564;-123.458;2023-08-24T02:24:15;101314.61;;;19.28;73.22
29063;BME280;71206;48.564;-123.458;2023-08-24T02:26:41;101312.88;;;18.02;85.83
29063;BME280;71206;48.564;-123.458;2023-08-24T02:29:06;101312.37;;;19.70;76.33
29063;BME280;71206;48.564;-123.458;2023-08-24T02:31:33;101310.75;;;19.58;72.02
29063;BME280;71206;48.564;-123.458;2023-08-24T02:33:57;101308.52;;;20.85;64.85
29063;BME280;71206;48.564;-123.458;2023-08-24T02:36:23;101317.86;;;19.01;76.71
29063;BME280;71206;48.564;-123.458;2023-08-24T02:38:49;101318.30;;;18.80;80.51
29063;BME280;71206;48.564;-123.458;2023-08-24T02:41:14;101314.97;;;18.53;81.34
29063;BME280;71206;48.564;-123.458;2023-08-24T02:43:40;101314.02;;;18.23;86.41
29063;BME280;71206;48.564;-123.458;2023-08-24T02:46:08;101309.70;;;20.27;71.03
29063;BME280;71206;48.564;-123.458;2023-08-24T02:48:32;101306.24;;;21.05;65.65
29063;BME280;71206;48.564;-123.458;2023-08-24T02:50:58;101308.52;;;21.46;61.49
29063;BME280;71206;48.564;-123.458;2023-08-24T02:53:23;101310.70;;;21.62;59.99
29063;BME280;71206;48.564;-123.458;2023-08-24T02:55:49;101310.45;;;21.63;59.14
29063;BME280;71206;48.564;-123.458;2023-08-24T02:58:14;101310.08;;;21.78;58.31
29063;BME280;71206;48.564;-123.458;2023-08-24T03:00:40;101313.48;;;21.80;57.79
29063;BME280;71206;48.564;-123.458;2023-08-24T03:03:05;101312.38;;;22.00;56.93
29063;BME280;71206;48.564;-123.458;2023-08-24T03:05:31;101323.07;;;19.04;74.79
29063;BME280;71206;48.564;-123.458;2023-08-24T03:07:58;101325.55;;;18.52;79.22
29063;BME280;71206;48.564;-123.458;2023-08-24T03:10:22;101316.09;;;21.47;60.99
29063;BME280;71206;48.564;-123.458;2023-08-24T03:12:49;101319.25;;;21.52;59.05
29063;BME280;71206;48.564;-123.458;2023-08-24T03:15:14;101322.75;;;19.82;65.57
29063;BME280;71206;48.564;-123.458;2023-08-24T03:17:40;101326.62;;;19.50;69.43
29063;BME280;71206;48.564;-123.458;2023-08-24T03:20:08;101327.88;;;18.05;84.04
29063;BME280;71206;48.564;-123.458;2023-08-24T03:22:31;101332.65;;;17.43;91.49
29063;BME280;71206;48.564;-123.458;2023-08-24T03:24:57;101336.73;;;18.61;83.98
29063;BME280;71206;48.564;-123.458;2023-08-24T03:27:23;101336.25;;;18.72;82.52
29063;BME280;71206;48.564;-123.458;2023-08-24T03:29:48;101337.11;;;18.52;81.58
29063;BME280;71206;48.564;-123.458;2023-08-24T03:32:13;101337.01;;;18.45;80.91
29063;BME280;71206;48.564;-123.458;2023-08-24T03:34:44;101334.43;;;18.30;87.23
29063;BME280;71206;48.564;-123.458;2023-08-24T03:37:05;101335.09;;;18.32;84.56
29063;BME280;71206;48.564;-123.458;2023-08-24T03:39:30;101337.72;;;19.71;74.76
29063;BME280;71206;48.564;-123.458;2023-08-24T03:41:56;101331.07;;;20.59;65.91
29063;BME280;71206;48.564;-123.458;2023-08-24T03:44:22;101339.99;;;18.41;83.16
29063;BME280;71206;48.564;-123.458;2023-08-24T03:46:47;101343.68;;;17.78;91.26
29063;BME280;71206;48.564;-123.458;2023-08-24T03:49:17;101345.37;;;18.19;89.77
29063;BME280;71206;48.564;-123.458;2023-08-24T03:51:40;101344.38;;;18.08;87.75
29063;BME280;71206;48.564;-123.458;2023-08-24T03:54:05;101343.96;;;18.28;86.23
29063;BME280;71206;48.564;-123.458;2023-08-24T03:56:32;101343.24;;;18.22;86.26
29063;BME280;71206;48.564;-123.458;2023-08-24T03:58:56;101351.56;;;17.31;98.50
29063;BME280;71206;48.564;-123.458;2023-08-24T04:01:22;101349.07;;;16.79;100.00
29063;BME280;71206;48.564;-123.458;2023-08-24T04:03:47;101346.41;;;17.82;94.91
29063;BME280;71206;48.564;-123.458;2023-08-24T04:06:13;101342.64;;;20.21;71.76
29063;BME280;71206;48.564;-123.458;2023-08-24T04:08:44;101344.58;;;18.30;84.05
29063;BME280;71206;48.564;-123.458;2023-08-24T04:11:06;101345.88;;;18.04;87.24
29063;BME280;71206;48.564;-123.458;2023-08-24T04:13:31;101351.63;;;19.71;72.90
29063;BME280;71206;48.564;-123.458;2023-08-24T04:15:56;101353.32;;;18.96;76.18
29063;BME280;71206;48.564;-123.458;2023-08-24T04:18:22;101352.72;;;19.42;73.47
29063;BME280;71206;48.564;-123.458;2023-08-24T04:20:48;101349.83;;;19.40;75.66
29063;BME280;71206;48.564;-123.458;2023-08-24T04:23:14;101346.50;;;19.75;71.12
29063;BME280;71206;48.564;-123.458;2023-08-24T04:25:40;101349.28;;;19.14;77.67
29063;BME280;71206;48.564;-123.458;2023-08-24T04:28:05;101348.98;;;19.81;72.57
29063;BME280;71206;48.564;-123.458;2023-08-24T04:30:30;101351.70;;;18.22;85.56
29063;BME280;71206;48.564;-123.458;2023-08-24T04:32:56;101355.79;;;19.31;78.92
29063;BME280;71206;48.564;-123.458;2023-08-24T04:35:24;101354.16;;;19.60;75.40
29063;BME280;71206;48.564;-123.458;2023-08-24T04:37:47;101349.59;;;20.53;67.66
29063;BME280;71206;48.564;-123.458;2023-08-24T04:40:13;101347.75;;;21.07;63.19
29063;BME280;71206;48.564;-123.458;2023-08-24T04:42:38;101352.61;;;19.44;71.54
29063;BME280;71206;48.564;-123.458;2023-08-24T04:45:05;101352.83;;;18.77;75.52
29063;BME280;71206;48.564;-123.458;2023-08-24T04:47:32;101349.58;;;19.07;75.35
29063;BME280;71206;48.564;-123.458;2023-08-24T04:49:55;101343.78;;;20.22;67.57
29063;BME280;71206;48.564;-123.458;2023-08-24T04:52:20;101345.49;;;20.01;67.26
29063;BME280;71206;48.564;-123.458;2023-08-24T04:54:49;101352.18;;;19.39;70.29
29063;BME280;71206;48.564;-123.458;2023-08-24T04:57:11;101349.99;;;20.60;64.01
29063;BME280;71206;48.564;-123.458;2023-08-24T04:59:37;101353.06;;;19.24;68.46
29063;BME280;71206;48.564;-123.458;2023-08-24T05:02:03;101351.34;;;19.50;68.71
29063;BME280;71206;48.564;-123.458;2023-08-24T05:04:29;101354.78;;;19.67;70.54
29063;BME280;71206;48.564;-123.458;2023-08-24T05:06:54;101344.58;;;20.74;64.09
29063;BME280;71206;48.564;-123.458;2023-08-24T05:09:19;101347.33;;;20.94;63.38
29063;BME280;71206;48.564;-123.458;2023-08-24T05:11:45;101348.71;;;20.32;65.38
29063;BME280;71206;48.564;-123.458;2023-08-24T05:14:11;101345.34;;;21.13;62.12
29063;BME280;71206;48.564;-123.458;2023-08-24T05:16:39;101344.91;;;20.11;64.31
29063;BME280;71206;48.564;-123.458;2023-08-24T05:19:02;101341.45;;;21.03;60.69
29063;BME280;71206;48.564;-123.458;2023-08-24T05:21:28;101337.54;;;21.32;59.29
29063;BME280;71206;48.564;-123.458;2023-08-24T05:23:54;101335.50;;;21.38;60.44
29063;BME280;71206;48.564;-123.458;2023-08-24T05:26:20;101331.39;;;21.35;60.22
29063;BME280;71206;48.564;-123.458;2023-08-24T05:28:47;101330.13;;;21.26;60.97
29063;BME280;71206;48.564;-123.458;2023-08-24T05:31:11;101328.41;;;21.00;62.40
29063;BME280;71206;48.564;-123.458;2023-08-24T05:33:37;101329.25;;;20.94;63.80
29063;BME280;71206;48.564;-123.458;2023-08-24T05:36:02;101329.27;;;21.16;61.48
29063;BME280;71206;48.564;-123.458;2023-08-24T05:38:27;101326.03;;;20.75;63.56
29063;BME280;71206;48.564;-123.458;2023-08-24T05:40:53;101328.22;;;20.01;67.01
29063;BME280;71206;48.564;-123.458;2023-08-24T05:43:19;101322.56;;;20.95;63.99
29063;BME280;71206;48.564;-123.458;2023-08-24T05:45:46;101323.32;;;21.05;62.19
29063;BME280;71206;48.564;-123.458;2023-08-24T05:48:10;101325.37;;;20.30;66.48
29063;BME280;71206;48.564;-123.458;2023-08-24T05:50:35;101325.08;;;20.41;66.82
29063;BME280;71206;48.564;-123.458;2023-08-24T05:53:02;101322.44;;;20.28;65.86
29063;BME280;71206;48.564;-123.458;2023-08-24T05:55:28;101327.60;;;20.67;64.46
29063;BME280;71206;48.564;-123.458;2023-08-24T05:57:52;101329.00;;;20.65;66.54
29063;BME280;71206;48.564;-123.458;2023-08-24T06:00:20;101330.64;;;20.33;67.00
29063;BME280;71206;48.564;-123.458;2023-08-24T06:02:44;101327.76;;;20.50;65.35
29063;BME280;71206;48.564;-123.458;2023-08-24T06:05:09;101327.14;;;20.84;63.47
29063;BME280;71206;48.564;-123.458;2023-08-24T06:07:35;101327.71;;;20.29;67.05
29063;BME280;71206;48.564;-123.458;2023-08-24T06:10:04;101328.64;;;20.65;65.80
29063;BME280;71206;48.564;-123.458;2023-08-24T06:12:26;101326.21;;;20.41;67.67
29063;BME280;71206;48.564;-123.458;2023-08-24T06:14:52;101325.15;;;20.23;68.83
29063;BME280;71206;48.564;-123.458;2023-08-24T06:17:18;101323.68;;;20.18;67.56
29063;BME280;71206;48.564;-123.458;2023-08-24T06:19:43;101324.99;;;20.52;67.62
29063;BME280;71206;48.564;-123.458;2023-08-24T06:22:09;101325.10;;;19.98;70.30
29063;BME280;71206;48.564;-123.458;2023-08-24T06:24:35;101331.61;;;19.65;72.17
29063;BME280;71206;48.564;-123.458;2023-08-24T06:27:01;101333.44;;;19.58;73.07
29063;BME280;71206;48.564;-123.458;2023-08-24T06:29:28;101330.43;;;20.09;69.39
29063;BME280;71206;48.564;-123.458;2023-08-24T06:31:57;101335.81;;;19.63;72.01
29063;BME280;71206;48.564;-123.458;2023-08-24T06:34:18;101335.22;;;19.87;70.00
29063;BME280;71206;48.564;-123.458;2023-08-24T06:36:43;101334.71;;;19.87;71.31
29063;BME280;71206;48.564;-123.458;2023-08-24T06:39:09;101330.20;;;20.11;68.20
29063;BME280;71206;48.564;-123.458;2023-08-24T06:41:35;101326.96;;;20.31;67.27
29063;BME280;71206;48.564;-123.458;2023-08-24T06:44:01;101330.36;;;20.28;66.45
29063;BME280;71206;48.564;-123.458;2023-08-24T06:46:26;101336.34;;;19.76;68.70
29063;BME280;71206;48.564;-123.458;2023-08-24T06:48:51;101336.25;;;19.72;71.97
29063;BME280;71206;48.564;-123.458;2023-08-24T06:51:17;101337.23;;;19.58;69.72
29063;BME280;71206;48.564;-123.458;2023-08-24T06:53:43;101340.78;;;19.70;68.91
29063;BME280;71206;48.564;-123.458;2023-08-24T06:56:08;101339.67;;;19.88;67.83
29063;BME280;71206;48.564;-123.458;2023-08-24T06:58:40;101337.42;;;20.03;66.87
29063;BME280;71206;48.564;-123.458;2023-08-24T07:01:00;101335.99;;;19.57;69.29
29063;BME280;71206;48.564;-123.458;2023-08-24T07:03:25;101338.52;;;16.85;94.77
29063;BME280;71206;48.564;-123.458;2023-08-24T07:05:51;101344.43;;;16.76;100.00
29063;BME280;71206;48.564;-123.458;2023-08-24T07:08:16;101338.66;;;18.80;83.77
29063;BME280;71206;48.564;-123.458;2023-08-24T07:10:45;101338.50;;;19.42;76.20
29063;BME280;71206;48.564;-123.458;2023-08-24T07:13:08;101337.03;;;19.59;73.19
29063;BME280;71206;48.564;-123.458;2023-08-24T07:15:32;101338.78;;;20.07;70.05
29063;BME280;71206;48.564;-123.458;2023-08-24T07:17:58;101344.55;;;19.87;71.69
29063;BME280;71206;48.564;-123.458;2023-08-24T07:20:23;101343.62;;;19.93;68.81
29063;BME280;71206;48.564;-123.458;2023-08-24T07:22:52;101344.09;;;19.95;70.69
29063;BME280;71206;48.564;-123.458;2023-08-24T07:25:13;101341.74;;;19.69;71.15
29063;BME280;71206;48.564;-123.458;2023-08-24T07:27:39;101339.21;;;19.86;69.59
29063;BME280;71206;48.564;-123.458;2023-08-24T07:30:05;101341.57;;;19.06;73.00
29063;BME280;71206;48.564;-123.458;2023-08-24T07:32:28;101341.01;;;19.40;70.20
29063;BME280;71206;48.564;-123.458;2023-08-24T07:34:55;101339.82;;;19.70;70.26
29063;BME280;71206;48.564;-123.458;2023-08-24T07:37:19;101338.92;;;19.16;75.79
29063;BME280;71206;48.564;-123.458;2023-08-24T07:39:45;101340.72;;;19.50;73.59
29063;BME280;71206;48.564;-123.458;2023-08-24T07:42:10;101344.04;;;19.11;74.44
29063;BME280;71206;48.564;-123.458;2023-08-24T07:44:37;101346.84;;;19.29;74.24
29063;BME280;71206;48.564;-123.458;2023-08-24T07:47:02;101344.44;;;18.85;76.25
29063;BME280;71206;48.564;-123.458;2023-08-24T07:49:28;101347.97;;;19.85;71.14
29063;BME280;71206;48.564;-123.458;2023-08-24T07:51:53;101344.41;;;19.32;71.66
29063;BME280;71206;48.564;-123.458;2023-08-24T07:54:18;101338.91;;;18.94;74.32
29063;BME280;71206;48.564;-123.458;2023-08-24T07:56:43;101337.51;;;18.79;75.80
29063;BME280;71206;48.564;-123.458;2023-08-24T07:59:08;101339.53;;;19.23;72.91
29063;BME280;71206;48.564;-123.458;2023-08-24T08:01:33;101340.70;;;19.39;72.16
29063;BME280;71206;48.564;-123.458;2023-08-24T08:04:01;101341.83;;;19.02;74.44
29063;BME280;71206;48.564;-123.458;2023-08-24T08:06:24;101339.55;;;18.76;75.36
29063;BME280;71206;48.564;-123.458;2023-08-24T08:08:49;101339.54;;;18.77;75.99
29063;BME280;71206;48.564;-123.458;2023-08-24T08:11:18;101344.40;;;18.95;72.80
29063;BME280;71206;48.564;-123.458;2023-08-24T08:13:41;101348.62;;;19.37;70.47
29063;BME280;71206;48.564;-123.458;2023-08-24T08:16:07;101347.80;;;19.10;72.18
29063;BME280;71206;48.564;-123.458;2023-08-24T08:18:32;101347.95;;;19.29;70.78
29063;BME280;71206;48.564;-123.458;2023-08-24T08:20:56;101344.17;;;19.29;70.53
29063;BME280;71206;48.564;-123.458;2023-08-24T08:23:26;101344.35;;;19.40;69.93
29063;BME280;71206;48.564;-123.458;2023-08-24T08:25:47;101345.76;;;19.09;71.67
29063;BME280;71206;48.564;-123.458;2023-08-24T08:28:12;101345.20;;;19.28;70.60
29063;BME280;71206;48.564;-123.458;2023-08-24T08:30:38;101346.32;;;19.46;68.88
29063;BME280;71206;48.564;-123.458;2023-08-24T08:33:03;101341.29;;;18.74;71.10
29063;BME280;71206;48.564;-123.458;2023-08-24T08:35:28;101343.07;;;17.96;79.07
29063;BME280;71206;48.564;-123.458;2023-08-24T08:37:52;101339.69;;;18.58;74.52
29063;BME280;71206;48.564;-123.458;2023-08-24T08:40:18;101343.95;;;19.52;70.30
29063;BME280;71206;48.564;-123.458;2023-08-24T08:42:43;101340.36;;;18.49;75.69
29063;BME280;71206;48.564;-123.458;2023-08-24T08:45:10;101340.58;;;18.97;75.01
29063;BME280;71206;48.564;-123.458;2023-08-24T08:47:34;101341.37;;;18.36;76.11
29063;BME280;71206;48.564;-123.458;2023-08-24T08:49:59;101341.99;;;18.96;71.50
29063;BME280;71206;48.564;-123.458;2023-08-24T08:52:24;101342.79;;;18.61;74.59
29063;BME280;71206;48.564;-123.458;2023-08-24T08:54:50;101341.25;;;18.67;74.33
29063;BME280;71206;48.564;-123.458;2023-08-24T08:57:15;101349.18;;;18.27;76.51
29063;BME280;71206;48.564;-123.458;2023-08-24T08:59:40;101350.58;;;19.17;71.48
29063;BME280;71206;48.564;-123.458;2023-08-24T09:02:04;101350.56;;;18.56;74.52
29063;BME280;71206;48.564;-123.458;2023-08-24T09:04:32;101348.54;;;19.50;68.76
29063;BME280;71206;48.564;-123.458;2023-08-24T09:07:02;101344.77;;;18.75;73.09
29063;BME280;71206;48.564;-123.458;2023-08-24T09:09:21;101347.23;;;18.46;76.62
29063;BME280;71206;48.564;-123.458;2023-08-24T09:11:47;101347.18;;;18.53;75.31
29063;BME280;71206;48.564;-123.458;2023-08-24T09:14:11;101348.35;;;18.66;74.53
29063;BME280;71206;48.564;-123.458;2023-08-24T09:16:37;101350.95;;;18.95;75.03
29063;BME280;71206;48.564;-123.458;2023-08-24T09:19:05;101352.58;;;18.68;74.74
29063;BME280;71206;48.564;-123.458;2023-08-24T09:21:28;101350.14;;;18.83;74.48
29063;BME280;71206;48.564;-123.458;2023-08-24T09:23:54;101352.28;;;18.36;76.19
29063;BME280;71206;48.564;-123.458;2023-08-24T09:26:17;101349.57;;;18.71;74.40
29063;BME280;71206;48.564;-123.458;2023-08-24T09:28:43;101344.24;;;19.05;72.15
29063;BME280;71206;48.564;-123.458;2023-08-24T09:31:08;101343.79;;;19.15;71.47
29063;BME280;71206;48.564;-123.458;2023-08-24T09:33:34;101351.14;;;18.41;75.36
29063;BME280;71206;48.564;-123.458;2023-08-24T09:35:57;101354.77;;;18.08;77.32
29063;BME280;71206;48.564;-123.458;2023-08-24T09:38:24;101351.83;;;17.79;77.71
29063;BME280;71206;48.564;-123.458;2023-08-24T09:40:52;101348.12;;;18.26;75.77
29063;BME280;71206;48.564;-123.458;2023-08-24T09:43:14;101343.42;;;18.93;71.85
29063;BME280;71206;48.564;-123.458;2023-08-24T09:45:49;101343.59;;;18.46;74.43
29063;BME280;71206;48.564;-123.458;2023-08-24T09:48:06;101345.21;;;18.07;76.35
29063;BME280;71206;48.564;-123.458;2023-08-24T09:50:29;101345.52;;;18.15;75.45
29063;BME280;71206;48.564;-123.458;2023-08-24T09:52:57;101347.06;;;16.94;85.35
29063;BME280;71206;48.564;-123.458;2023-08-24T09:55:20;101345.31;;;18.02;77.92
29063;BME280;71206;48.564;-123.458;2023-08-24T09:57:45;101344.38;;;18.44;76.11
29063;BME280;71206;48.564;-123.458;2023-08-24T10:00:11;101343.23;;;18.63;74.87
29063;BME280;71206;48.564;-123.458;2023-08-24T10:02:38;101342.97;;;18.00;78.08
29063;BME280;71206;48.564;-123.458;2023-08-24T10:05:01;101340.69;;;18.65;75.86
29063;BME280;71206;48.564;-123.458;2023-08-24T10:07:26;101343.42;;;18.23;76.80
29063;BME280;71206;48.564;-123.458;2023-08-24T10:10:02;101344.23;;;18.21;78.52
29063;BME280;71206;48.564;-123.458;2023-08-24T10:12:19;101340.28;;;18.96;74.58
29063;BME280;71206;48.564;-123.458;2023-08-24T10:14:50;101338.49;;;19.05;74.45
29063;BME280;71206;48.564;-123.458;2023-08-24T10:17:08;101336.86;;;18.55;75.59
29063;BME280;71206;48.564;-123.458;2023-08-24T10:19:32;101331.45;;;18.83;74.18
29063;BME280;71206;48.564;-123.458;2023-08-24T10:22:01;101332.27;;;19.29;71.59
29063;BME280;71206;48.564;-123.458;2023-08-24T10:24:24;101334.01;;;18.69;74.18
29063;BME280;71206;48.564;-123.458;2023-08-24T10:26:50;101339.37;;;18.28;78.97
29063;BME280;71206;48.564;-123.458;2023-08-24T10:29:14;101336.07;;;18.02;78.59
29063;BME280;71206;48.564;-123.458;2023-08-24T10:31:41;101337.68;;;17.89;81.69
29063;BME280;71206;48.564;-123.458;2023-08-24T10:34:06;101333.45;;;18.60;74.62
29063;BME280;71206;48.564;-123.458;2023-08-24T10:36:30;101337.02;;;18.49;74.58
29063;BME280;71206;48.564;-123.458;2023-08-24T10:38:57;101345.43;;;18.05;78.28
29063;BME280;71206;48.564;-123.458;2023-08-24T10:41:20;101343.97;;;18.22;77.60
29063;BME280;71206;48.564;-123.458;2023-08-24T10:43:52;101347.21;;;17.84;79.59
29063;BME280;71206;48.564;-123.458;2023-08-24T10:46:13;101343.13;;;18.22;75.72
29063;BME280;71206;48.564;-123.458;2023-08-24T10:51:18;101346.11;;;18.23;75.25
29063;BME280;71206;48.564;-123.458;2023-08-24T10:53:37;101347.46;;;17.83;78.43
29063;BME280;71206;48.564;-123.458;2023-08-24T10:58:17;101351.28;;;17.79;77.70
29063;BME280;71206;48.564;-123.458;2023-08-24T11:00:48;101346.26;;;18.67;71.44
29063;BME280;71206;48.564;-123.458;2023-08-24T11:03:07;101348.63;;;18.13;73.99
29063;BME280;71206;48.564;-123.458;2023-08-24T11:05:33;101350.54;;;18.01;75.21
29063;BME280;71206;48.564;-123.458;2023-08-24T11:07:58;101348.69;;;17.71;77.16
29063;BME280;71206;48.564;-123.458;2023-08-24T11:10:23;101346.68;;;17.76;79.92
29063;BME280;71206;48.564;-123.458;2023-08-24T11:17:36;101342.49;;;18.09;74.95
29063;BME280;71206;48.564;-123.458;2023-08-24T11:20:02;101337.84;;;17.36;79.22
29063;BME280;71206;48.564;-123.458;2023-08-24T11:22:27;101339.98;;;18.17;73.63
29063;BME280;71206;48.564;-123.458;2023-08-24T11:24:53;101343.05;;;17.52;77.27
29063;BME280;71206;48.564;-123.458;2023-08-24T11:27:21;101341.35;;;17.58;76.53
29063;BME280;71206;48.564;-123.458;2023-08-24T11:29:47;101341.15;;;17.57;75.52
29063;BME280;71206;48.564;-123.458;2023-08-24T11:32:08;101341.03;;;17.45;75.76
29063;BME280;71206;48.564;-123.458;2023-08-24T11:34:34;101343.40;;;17.19;77.61
29063;BME280;71206;48.564;-123.458;2023-08-24T11:36:58;101343.19;;;17.21;77.74
29063;BME280;71206;48.564;-123.458;2023-08-24T11:39:23;101344.87;;;17.20;78.80
29063;BME280;71206;48.564;-123.458;2023-08-24T11:41:58;101347.06;;;16.99;78.51
29063;BME280;71206;48.564;-123.458;2023-08-24T11:44:14;101350.00;;;17.72;73.92
29063;BME280;71206;48.564;-123.458;2023-08-24T11:46:38;101348.18;;;18.16;69.84
29063;BME280;71206;48.564;-123.458;2023-08-24T11:49:05;101347.87;;;18.05;70.00
29063;BME280;71206;48.564;-123.458;2023-08-24T11:51:28;101343.47;;;18.20;71.21
29063;BME280;71206;48.564;-123.458;2023-08-24T11:53:53;101340.49;;;17.52;73.30
29063;BME280;71206;48.564;-123.458;2023-08-24T11:56:18;101336.39;;;17.24;75.01
29063;BME280;71206;48.564;-123.458;2023-08-24T11:58:48;101336.10;;;17.38;76.82
29063;BME280;71206;48.564;-123.458;2023-08-24T12:01:09;101338.35;;;17.09;76.10
29063;BME280;71206;48.564;-123.458;2023-08-24T12:03:33;101337.22;;;17.46;73.94
29063;BME280;71206;48.564;-123.458;2023-08-24T12:06:00;101341.04;;;17.29;76.77
29063;BME280;71206;48.564;-123.458;2023-08-24T12:08:23;101340.81;;;17.35;73.84
29063;BME280;71206;48.564;-123.458;2023-08-24T12:10:49;101340.90;;;17.82;70.74
29063;BME280;71206;48.564;-123.458;2023-08-24T12:13:15;101340.28;;;17.39;73.97
29063;BME280;71206;48.564;-123.458;2023-08-24T12:15:41;101341.74;;;17.34;74.96
29063;BME280;71206;48.564;-123.458;2023-08-24T12:18:10;101345.50;;;17.79;71.59
29063;BME280;71206;48.564;-123.458;2023-08-24T12:20:31;101345.89;;;17.98;69.20